sensor_id;sensor_type;location;lat;lon;timestamp;temperature;humidity
69009;SHT31;56065;52.472;13.380;2023-07-31T00:00:05;18.09;83.00
69009;SHT31;56065;52.472;13.380;2023-07-31T00:02:30;18.05;83.03
69009;SHT31;56065;52.472;13.380;2023-07-31T00:04:56;17.96;83.88
69009;SHT31;56065;52.472;13.380;2023-07-31T00:07:21;17.94;83.80
69009;SHT31;56065;52.472;13.380;2023-07-31T00:09:47;17.88;84.11
69009;SHT31;56065;52.472;13.380;2023-07-31T00:12:12;17.81;84.10
69009;SHT31;56065;52.472;13.380;2023-07-31T00:14:37;17.78;84.84
69009;SHT31;56065;52.472;13.380;2023-07-31T00:17:03;17.74;84.86
69009;SHT31;56065;52.472;13.380;2023-07-31T00:19:29;17.77;84.50
69009;SHT31;56065;52.472;13.380;2023-07-31T00:21:54;17.75;84.77
69009;SHT31;56065;52.472;13.380;2023-07-31T00:24:19;17.71;85.10
69009;SHT31;56065;52.472;13.380;2023-07-31T00:26:45;17.71;84.41
69009;SHT31;56065;52.472;13.380;2023-07-31T00:29:10;17.73;84.54
69009;SHT31;56065;52.472;13.380;2023-07-31T00:31:35;17.68;84.87
69009;SHT31;56065;52.472;13.380;2023-07-31T00:34:01;17.68;84.68
69009;SHT31;56065;52.472;13.380;2023-07-31T00:36:26;17.70;85.61
69009;SHT31;56065;52.472;13.380;2023-07-31T00:38:51;17.64;85.82
69009;SHT31;56065;52.472;13.380;2023-07-31T00:41:17;17.67;85.37
69009;SHT31;56065;52.472;13.380;2023-07-31T00:43:42;17.70;85.22
69009;SHT31;56065;52.472;13.380;2023-07-31T00:46:08;17.74;85.42
69009;SHT31;56065;52.472;13.380;2023-07-31T00:48:34;17.77;85.54
69009;SHT31;56065;52.472;13.380;2023-07-31T00:51:00;17.84;85.44
69009;SHT31;56065;52.472;13.380;2023-07-31T00:53:27;17.86;85.57
69009;SHT31;56065;52.472;13.380;2023-07-31T00:55:52;17.95;86.07
69009;SHT31;56065;52.472;13.380;2023-07-31T00:58:18;17.99;85.54
69009;SHT31;56065;52.472;13.380;2023-07-31T01:00:43;18.08;85.56
69009;SHT31;56065;52.472;13.380;2023-07-31T01:03:09;18.13;85.31
69009;SHT31;56065;52.472;13.380;2023-07-31T01:05:58;18.19;85.93
69009;SHT31;56065;52.472;13.380;2023-07-31T01:08:37;18.26;85.05
69009;SHT31;56065;52.472;13.380;2023-07-31T01:11:21;18.16;84.93
69009;SHT31;56065;52.472;13.380;2023-07-31T01:13:47;18.16;84.82
69009;SHT31;56065;52.472;13.380;2023-07-31T01:16:13;18.17;85.03
69009;SHT31;56065;52.472;13.380;2023-07-31T01:18:38;18.16;85.38
69009;SHT31;56065;52.472;13.380;2023-07-31T01:26:39;18.21;85.43
69009;SHT31;56065;52.472;13.380;2023-07-31T01:31:56;18.15;84.73
69009;SHT31;56065;52.472;13.380;2023-07-31T01:34:24;18.16;84.69
69009;SHT31;56065;52.472;13.380;2023-07-31T01:36:51;18.19;84.83
69009;SHT31;56065;52.472;13.380;2023-07-31T01:39:16;18.19;85.08
69009;SHT31;56065;52.472;13.380;2023-07-31T01:41:42;18.24;85.15
69009;SHT31;56065;52.472;13.380;2023-07-31T01:44:07;18.22;85.20
69009;SHT31;56065;52.472;13.380;2023-07-31T01:46:32;18.25;85.78
69009;SHT31;56065;52.472;13.380;2023-07-31T01:48:58;18.30;85.95
69009;SHT31;56065;52.472;13.380;2023-07-31T01:51:23;18.30;85.54
69009;SHT31;56065;52.472;13.380;2023-07-31T01:53:48;18.30;85.71
69009;SHT31;56065;52.472;13.380;2023-07-31T01:56:13;18.29;85.88
69009;SHT31;56065;52.472;13.380;2023-07-31T01:58:39;18.33;86.10
69009;SHT31;56065;52.472;13.380;2023-07-31T02:01:04;18.32;85.92
69009;SHT31;56065;52.472;13.380;2023-07-31T02:03:30;18.36;85.86
69009;SHT31;56065;52.472;13.380;2023-07-31T02:05:55;18.33;85.76
69009;SHT31;56065;52.472;13.380;2023-07-31T02:08:21;18.29;86.02
69009;SHT31;56065;52.472;13.380;2023-07-31T02:10:47;18.32;85.79
69009;SHT31;56065;52.472;13.380;2023-07-31T02:13:12;18.30;86.01
69009;SHT31;56065;52.472;13.380;2023-07-31T02:15:37;18.29;86.03
69009;SHT31;56065;52.472;13.380;2023-07-31T02:18:03;18.37;85.97
69009;SHT31;56065;52.472;13.380;2023-07-31T02:20:28;18.39;86.12
69009;SHT31;56065;52.472;13.380;2023-07-31T02:22:53;18.37;86.29
69009;SHT31;56065;52.472;13.380;2023-07-31T02:25:19;18.39;86.00
69009;SHT31;56065;52.472;13.380;2023-07-31T02:27:44;18.35;85.91
69009;SHT31;56065;52.472;13.380;2023-07-31T02:30:10;18.29;85.92
69009;SHT31;56065;52.472;13.380;2023-07-31T02:32:35;18.30;86.04
69009;SHT31;56065;52.472;13.380;2023-07-31T02:35:01;18.35;85.99
69009;SHT31;56065;52.472;13.380;2023-07-31T02:37:26;18.33;85.90
69009;SHT31;56065;52.472;13.380;2023-07-31T02:39:54;18.36;85.17
69009;SHT31;56065;52.472;13.380;2023-07-31T02:42:19;18.40;85.82
69009;SHT31;56065;52.472;13.380;2023-07-31T02:44:44;18.37;84.83
69009;SHT31;56065;52.472;13.380;2023-07-31T02:47:10;18.37;85.78
69009;SHT31;56065;52.472;13.380;2023-07-31T02:49:35;18.37;86.06
69009;SHT31;56065;52.472;13.380;2023-07-31T02:52:00;18.39;85.32
69009;SHT31;56065;52.472;13.380;2023-07-31T02:54:26;18.33;85.66
69009;SHT31;56065;52.472;13.380;2023-07-31T02:56:51;18.32;85.68
69009;SHT31;56065;52.472;13.380;2023-07-31T02:59:17;18.33;85.82
69009;SHT31;56065;52.472;13.380;2023-07-31T03:01:42;18.35;85.37
69009;SHT31;56065;52.472;13.380;2023-07-31T03:04:07;18.28;85.18
69009;SHT31;56065;52.472;13.380;2023-07-31T03:06:33;18.28;85.08
69009;SHT31;56065;52.472;13.380;2023-07-31T03:08:58;18.26;85.76
69009;SHT31;56065;52.472;13.380;2023-07-31T03:11:23;18.25;85.43
69009;SHT31;56065;52.472;13.380;2023-07-31T03:13:48;18.25;85.35
69009;SHT31;56065;52.472;13.380;2023-07-31T03:16:14;18.25;85.71
69009;SHT31;56065;52.472;13.380;2023-07-31T03:18:39;18.19;85.49
69009;SHT31;56065;52.472;13.380;2023-07-31T03:21:04;18.21;85.80
69009;SHT31;56065;52.472;13.380;2023-07-31T03:23:30;18.25;85.40
69009;SHT31;56065;52.472;13.380;2023-07-31T03:26:02;18.21;85.49
69009;SHT31;56065;52.472;13.380;2023-07-31T03:28:31;18.24;85.58
69009;SHT31;56065;52.472;13.380;2023-07-31T03:30:56;18.15;85.80
69009;SHT31;56065;52.472;13.380;2023-07-31T03:33:21;18.09;85.96
69009;SHT31;56065;52.472;13.380;2023-07-31T03:35:47;18.09;85.54
69009;SHT31;56065;52.472;13.380;2023-07-31T03:38:12;18.12;85.81
69009;SHT31;56065;52.472;13.380;2023-07-31T03:40:38;18.06;85.77
69009;SHT31;56065;52.472;13.380;2023-07-31T03:43:04;18.02;85.96
69009;SHT31;56065;52.472;13.380;2023-07-31T03:45:30;18.05;86.14
69009;SHT31;56065;52.472;13.380;2023-07-31T03:47:55;18.04;86.06
69009;SHT31;56065;52.472;13.380;2023-07-31T03:50:20;18.08;85.90
69009;SHT31;56065;52.472;13.380;2023-07-31T03:52:46;18.06;85.81
69009;SHT31;56065;52.472;13.380;2023-07-31T03:55:11;18.05;86.14
69009;SHT31;56065;52.472;13.380;2023-07-31T03:57:36;18.04;86.05
69009;SHT31;56065;52.472;13.380;2023-07-31T04:00:02;18.05;85.90
69009;SHT31;56065;52.472;13.380;2023-07-31T04:02:28;18.06;85.80
69009;SHT31;56065;52.472;13.380;2023-07-31T04:04:53;18.09;86.01
69009;SHT31;56065;52.472;13.380;2023-07-31T04:07:18;18.15;85.97
69009;SHT31;56065;52.472;13.380;2023-07-31T04:09:43;18.15;85.99
69009;SHT31;56065;52.472;13.380;2023-07-31T04:12:09;18.17;86.03
69009;SHT31;56065;52.472;13.380;2023-07-31T04:14:34;18.13;85.97
69009;SHT31;56065;52.472;13.380;2023-07-31T04:16:59;18.16;86.23
69009;SHT31;56065;52.472;13.380;2023-07-31T04:19:25;18.25;85.69
69009;SHT31;56065;52.472;13.380;2023-07-31T04:21:50;18.28;85.61
69009;SHT31;56065;52.472;13.380;2023-07-31T04:24:15;18.26;85.71
69009;SHT31;56065;52.472;13.380;2023-07-31T04:26:41;18.29;85.78
69009;SHT31;56065;52.472;13.380;2023-07-31T04:29:06;18.29;85.82
69009;SHT31;56065;52.472;13.380;2023-07-31T04:31:33;18.21;86.59
69009;SHT31;56065;52.472;13.380;2023-07-31T04:33:58;18.22;86.46
69009;SHT31;56065;52.472;13.380;2023-07-31T04:36:24;18.26;86.11
69009;SHT31;56065;52.472;13.380;2023-07-31T04:38:49;18.15;86.18
69009;SHT31;56065;52.472;13.380;2023-07-31T04:41:14;18.15;86.26
69009;SHT31;56065;52.472;13.380;2023-07-31T04:43:40;18.21;86.07
69009;SHT31;56065;52.472;13.380;2023-07-31T04:46:06;18.22;86.44
69009;SHT31;56065;52.472;13.380;2023-07-31T04:48:31;18.29;86.10
69009;SHT31;56065;52.472;13.380;2023-07-31T04:50:56;18.22;86.43
69009;SHT31;56065;52.472;13.380;2023-07-31T04:53:22;18.25;86.39
69009;SHT31;56065;52.472;13.380;2023-07-31T04:55:47;18.28;86.64
69009;SHT31;56065;52.472;13.380;2023-07-31T04:58:12;18.37;86.58
69009;SHT31;56065;52.472;13.380;2023-07-31T05:00:38;18.36;86.48
69009;SHT31;56065;52.472;13.380;2023-07-31T05:03:03;18.40;86.24
69009;SHT31;56065;52.472;13.380;2023-07-31T05:05:28;18.43;86.34
69009;SHT31;56065;52.472;13.380;2023-07-31T05:07:54;18.53;86.07
69009;SHT31;56065;52.472;13.380;2023-07-31T05:10:19;18.56;86.44
69009;SHT31;56065;52.472;13.380;2023-07-31T05:12:44;18.64;85.67
69009;SHT31;56065;52.472;13.380;2023-07-31T05:15:10;18.66;85.79
69009;SHT31;56065;52.472;13.380;2023-07-31T05:17:35;18.70;85.70
69009;SHT31;56065;52.472;13.380;2023-07-31T05:20:00;18.77;85.72
69009;SHT31;56065;52.472;13.380;2023-07-31T05:22:26;18.64;85.40
69009;SHT31;56065;52.472;13.380;2023-07-31T05:24:51;18.63;85.61
69009;SHT31;56065;52.472;13.380;2023-07-31T05:27:16;18.81;85.49
69009;SHT31;56065;52.472;13.380;2023-07-31T05:29:44;18.93;85.51
69009;SHT31;56065;52.472;13.380;2023-07-31T05:32:10;18.93;85.71
69009;SHT31;56065;52.472;13.380;2023-07-31T05:34:35;18.95;85.47
69009;SHT31;56065;52.472;13.380;2023-07-31T05:37:00;19.04;85.36
69009;SHT31;56065;52.472;13.380;2023-07-31T05:39:26;19.00;85.20
69009;SHT31;56065;52.472;13.380;2023-07-31T05:41:51;18.98;85.55
69009;SHT31;56065;52.472;13.380;2023-07-31T05:44:16;19.01;85.54
69009;SHT31;56065;52.472;13.380;2023-07-31T05:46:41;19.05;85.43
69009;SHT31;56065;52.472;13.380;2023-07-31T05:49:07;19.11;85.31
69009;SHT31;56065;52.472;13.380;2023-07-31T05:51:32;19.05;85.13
69009;SHT31;56065;52.472;13.380;2023-07-31T05:53:57;19.10;85.30
69009;SHT31;56065;52.472;13.380;2023-07-31T05:56:23;19.19;85.25
69009;SHT31;56065;52.472;13.380;2023-07-31T05:58:48;19.34;85.15
69009;SHT31;56065;52.472;13.380;2023-07-31T06:01:16;19.35;85.57
69009;SHT31;56065;52.472;13.380;2023-07-31T06:03:42;19.39;85.07
69009;SHT31;56065;52.472;13.380;2023-07-31T06:06:07;19.31;84.32
69009;SHT31;56065;52.472;13.380;2023-07-31T06:08:33;19.39;84.68
69009;SHT31;56065;52.472;13.380;2023-07-31T06:10:58;19.35;84.70
69009;SHT31;56065;52.472;13.380;2023-07-31T06:13:23;19.38;84.81
69009;SHT31;56065;52.472;13.380;2023-07-31T06:15:49;19.22;84.51
69009;SHT31;56065;52.472;13.380;2023-07-31T06:18:14;19.39;84.73
69009;SHT31;56065;52.472;13.380;2023-07-31T06:20:39;19.31;84.58
69009;SHT31;56065;52.472;13.380;2023-07-31T06:23:05;19.46;85.13
69009;SHT31;56065;52.472;13.380;2023-07-31T06:25:31;19.51;84.91
69009;SHT31;56065;52.472;13.380;2023-07-31T06:27:56;19.49;84.68
69009;SHT31;56065;52.472;13.380;2023-07-31T06:30:21;19.48;84.28
69009;SHT31;56065;52.472;13.380;2023-07-31T06:32:47;19.51;84.61
69009;SHT31;56065;52.472;13.380;2023-07-31T06:35:12;19.59;84.83
69009;SHT31;56065;52.472;13.380;2023-07-31T06:37:37;19.70;84.56
69009;SHT31;56065;52.472;13.380;2023-07-31T06:40:06;19.86;83.94
69009;SHT31;56065;52.472;13.380;2023-07-31T06:42:32;19.97;83.47
69009;SHT31;56065;52.472;13.380;2023-07-31T06:44:58;19.97;84.02
69009;SHT31;56065;52.472;13.380;2023-07-31T06:47:23;20.12;83.55
69009;SHT31;56065;52.472;13.380;2023-07-31T06:49:48;20.07;82.58
69009;SHT31;56065;52.472;13.380;2023-07-31T06:52:14;20.01;83.53
69009;SHT31;56065;52.472;13.380;2023-07-31T06:54:39;19.92;83.52
69009;SHT31;56065;52.472;13.380;2023-07-31T06:57:05;19.92;83.43
69009;SHT31;56065;52.472;13.380;2023-07-31T06:59:30;19.97;83.58
69009;SHT31;56065;52.472;13.380;2023-07-31T07:01:55;20.00;83.44
69009;SHT31;56065;52.472;13.380;2023-07-31T07:04:21;19.97;83.67
69009;SHT31;56065;52.472;13.380;2023-07-31T07:06:46;19.85;83.84
69009;SHT31;56065;52.472;13.380;2023-07-31T07:09:12;19.80;83.67
69009;SHT31;56065;52.472;13.380;2023-07-31T07:11:37;19.76;83.71
69009;SHT31;56065;52.472;13.380;2023-07-31T07:14:03;19.79;84.23
69009;SHT31;56065;52.472;13.380;2023-07-31T07:16:28;19.77;84.10
69009;SHT31;56065;52.472;13.380;2023-07-31T07:18:54;19.76;84.15
69009;SHT31;56065;52.472;13.380;2023-07-31T07:21:19;19.82;84.11
69009;SHT31;56065;52.472;13.380;2023-07-31T07:23:44;19.92;84.11
69009;SHT31;56065;52.472;13.380;2023-07-31T07:26:10;20.16;83.49
69009;SHT31;56065;52.472;13.380;2023-07-31T07:28:35;20.37;83.25
69009;SHT31;56065;52.472;13.380;2023-07-31T07:31:02;20.65;82.92
69009;SHT31;56065;52.472;13.380;2023-07-31T07:33:27;20.85;81.62
69009;SHT31;56065;52.472;13.380;2023-07-31T07:35:53;20.88;81.78
69009;SHT31;56065;52.472;13.380;2023-07-31T07:38:19;21.09;81.53
69009;SHT31;56065;52.472;13.380;2023-07-31T07:40:44;21.23;81.07
69009;SHT31;56065;52.472;13.380;2023-07-31T07:43:12;21.63;80.28
69009;SHT31;56065;52.472;13.380;2023-07-31T07:45:37;21.83;79.58
69009;SHT31;56065;52.472;13.380;2023-07-31T07:48:03;21.95;79.12
69009;SHT31;56065;52.472;13.380;2023-07-31T07:50:28;22.01;79.39
69009;SHT31;56065;52.472;13.380;2023-07-31T07:52:53;21.81;78.68
69009;SHT31;56065;52.472;13.380;2023-07-31T07:55:19;21.67;79.86
69009;SHT31;56065;52.472;13.380;2023-07-31T07:57:44;21.68;80.08
69009;SHT31;56065;52.472;13.380;2023-07-31T08:00:10;21.61;79.69
69009;SHT31;56065;52.472;13.380;2023-07-31T08:02:36;21.26;80.20
69009;SHT31;56065;52.472;13.380;2023-07-31T08:05:01;21.19;80.95
69009;SHT31;56065;52.472;13.380;2023-07-31T08:07:26;21.16;81.27
69009;SHT31;56065;52.472;13.380;2023-07-31T08:09:52;21.06;81.48
69009;SHT31;56065;52.472;13.380;2023-07-31T08:12:17;21.02;81.85
69009;SHT31;56065;52.472;13.380;2023-07-31T08:14:43;20.94;82.11
69009;SHT31;56065;52.472;13.380;2023-07-31T08:17:08;21.03;82.12
69009;SHT31;56065;52.472;13.380;2023-07-31T08:19:34;21.16;81.98
69009;SHT31;56065;52.472;13.380;2023-07-31T08:21:59;21.13;81.55
69009;SHT31;56065;52.472;13.380;2023-07-31T08:24:25;21.10;81.83
69009;SHT31;56065;52.472;13.380;2023-07-31T08:26:50;21.09;82.64
69009;SHT31;56065;52.472;13.380;2023-07-31T08:29:15;21.47;82.46
69009;SHT31;56065;52.472;13.380;2023-07-31T08:31:41;21.76;81.99
69009;SHT31;56065;52.472;13.380;2023-07-31T08:34:06;22.00;80.83
69009;SHT31;56065;52.472;13.380;2023-07-31T08:36:32;22.21;80.54
69009;SHT31;56065;52.472;13.380;2023-07-31T08:38:57;22.00;80.64
69009;SHT31;56065;52.472;13.380;2023-07-31T08:41:22;22.07;80.33
69009;SHT31;56065;52.472;13.380;2023-07-31T08:43:49;22.04;80.10
69009;SHT31;56065;52.472;13.380;2023-07-31T08:46:15;22.09;80.19
69009;SHT31;56065;52.472;13.380;2023-07-31T08:48:42;22.21;80.08
69009;SHT31;56065;52.472;13.380;2023-07-31T08:51:08;22.22;80.06
69009;SHT31;56065;52.472;13.380;2023-07-31T08:53:33;22.00;79.30
69009;SHT31;56065;52.472;13.380;2023-07-31T08:55:59;21.98;79.51
69009;SHT31;56065;52.472;13.380;2023-07-31T08:58:25;21.71;79.64
69009;SHT31;56065;52.472;13.380;2023-07-31T09:00:53;21.56;80.34
69009;SHT31;56065;52.472;13.380;2023-07-31T09:03:21;21.77;80.63
69009;SHT31;56065;52.472;13.380;2023-07-31T09:05:48;22.01;80.13
69009;SHT31;56065;52.472;13.380;2023-07-31T09:08:18;22.19;79.30
69009;SHT31;56065;52.472;13.380;2023-07-31T09:10:45;22.14;79.10
69009;SHT31;56065;52.472;13.380;2023-07-31T09:13:17;22.05;78.80
69009;SHT31;56065;52.472;13.380;2023-07-31T09:15:44;22.04;78.82
69009;SHT31;56065;52.472;13.380;2023-07-31T09:18:10;21.98;78.53
69009;SHT31;56065;52.472;13.380;2023-07-31T09:20:36;22.01;79.45
69009;SHT31;56065;52.472;13.380;2023-07-31T09:23:10;21.93;79.29
69009;SHT31;56065;52.472;13.380;2023-07-31T09:25:37;21.70;80.31
69009;SHT31;56065;52.472;13.380;2023-07-31T09:28:06;21.74;80.58
69009;SHT31;56065;52.472;13.380;2023-07-31T09:30:44;21.61;80.62
69009;SHT31;56065;52.472;13.380;2023-07-31T09:33:10;21.47;81.00
69009;SHT31;56065;52.472;13.380;2023-07-31T09:35:35;21.37;81.26
69009;SHT31;56065;52.472;13.380;2023-07-31T09:38:05;21.26;80.97
69009;SHT31;56065;52.472;13.380;2023-07-31T09:40:32;21.16;81.38
69009;SHT31;56065;52.472;13.380;2023-07-31T09:43:00;20.98;81.48
69009;SHT31;56065;52.472;13.380;2023-07-31T09:45:25;21.09;81.75
69009;SHT31;56065;52.472;13.380;2023-07-31T09:47:52;21.18;81.64
69009;SHT31;56065;52.472;13.380;2023-07-31T09:50:19;21.29;81.64
69009;SHT31;56065;52.472;13.380;2023-07-31T09:52:45;21.30;81.29
69009;SHT31;56065;52.472;13.380;2023-07-31T09:55:10;21.39;81.09
69009;SHT31;56065;52.472;13.380;2023-07-31T09:57:44;21.39;80.96
69009;SHT31;56065;52.472;13.380;2023-07-31T10:00:15;21.36;80.88
69009;SHT31;56065;52.472;13.380;2023-07-31T10:02:41;21.32;80.91
69009;SHT31;56065;52.472;13.380;2023-07-31T10:05:08;21.37;81.12
69009;SHT31;56065;52.472;13.380;2023-07-31T10:07:37;21.57;81.39
69009;SHT31;56065;52.472;13.380;2023-07-31T10:10:04;21.78;80.20
69009;SHT31;56065;52.472;13.380;2023-07-31T10:12:32;21.83;79.75
69009;SHT31;56065;52.472;13.380;2023-07-31T10:14:59;21.87;80.25
69009;SHT31;56065;52.472;13.380;2023-07-31T10:17:25;21.88;80.38
69009;SHT31;56065;52.472;13.380;2023-07-31T10:19:51;21.90;80.48
69009;SHT31;56065;52.472;13.380;2023-07-31T10:22:16;21.74;80.38
69009;SHT31;56065;52.472;13.380;2023-07-31T10:24:44;21.49;81.01
69009;SHT31;56065;52.472;13.380;2023-07-31T10:27:10;21.45;81.07
69009;SHT31;56065;52.472;13.380;2023-07-31T10:29:37;21.60;80.99
69009;SHT31;56065;52.472;13.380;2023-07-31T10:32:04;21.76;81.17
69009;SHT31;56065;52.472;13.380;2023-07-31T10:34:34;22.08;80.15
69009;SHT31;56065;52.472;13.380;2023-07-31T10:37:22;22.35;80.45
69009;SHT31;56065;52.472;13.380;2023-07-31T10:39:58;22.51;78.99
69009;SHT31;56065;52.472;13.380;2023-07-31T10:42:29;23.21;79.39
69009;SHT31;56065;52.472;13.380;2023-07-31T10:45:00;24.70;77.44
69009;SHT31;56065;52.472;13.380;2023-07-31T10:47:26;26.43;73.33
69009;SHT31;56065;52.472;13.380;2023-07-31T10:49:51;27.23;71.29
69009;SHT31;56065;52.472;13.380;2023-07-31T10:52:21;28.32;69.14
69009;SHT31;56065;52.472;13.380;2023-07-31T10:55:15;28.92;67.05
69009;SHT31;56065;52.472;13.380;2023-07-31T10:57:44;28.46;65.19
69009;SHT31;56065;52.472;13.380;2023-07-31T11:00:25;28.44;66.30
69009;SHT31;56065;52.472;13.380;2023-07-31T11:03:05;29.27;64.60
69009;SHT31;56065;52.472;13.380;2023-07-31T11:06:02;29.18;62.89
69009;SHT31;56065;52.472;13.380;2023-07-31T11:08:36;29.47;61.97
69009;SHT31;56065;52.472;13.380;2023-07-31T11:11:10;29.14;61.02
69009;SHT31;56065;52.472;13.380;2023-07-31T11:13:44;28.51;62.92
69009;SHT31;56065;52.472;13.380;2023-07-31T11:16:11;27.56;64.35
69009;SHT31;56065;52.472;13.380;2023-07-31T11:18:39;27.71;65.30
69009;SHT31;56065;52.472;13.380;2023-07-31T11:21:05;27.73;63.64
69009;SHT31;56065;52.472;13.380;2023-07-31T11:23:31;27.50;63.50
69009;SHT31;56065;52.472;13.380;2023-07-31T11:26:00;26.78;64.60
69009;SHT31;56065;52.472;13.380;2023-07-31T11:28:31;26.25;65.86
69009;SHT31;56065;52.472;13.380;2023-07-31T11:30:57;25.82;66.63
69009;SHT31;56065;52.472;13.380;2023-07-31T11:33:23;25.61;67.94
69009;SHT31;56065;52.472;13.380;2023-07-31T11:35:48;25.46;68.57
69009;SHT31;56065;52.472;13.380;2023-07-31T11:38:31;25.56;67.96
69009;SHT31;56065;52.472;13.380;2023-07-31T11:41:00;25.29;67.35
69009;SHT31;56065;52.472;13.380;2023-07-31T11:43:27;24.98;67.04
69009;SHT31;56065;52.472;13.380;2023-07-31T11:45:58;24.75;67.82
69009;SHT31;56065;52.472;13.380;2023-07-31T11:48:28;24.61;68.56
69009;SHT31;56065;52.472;13.380;2023-07-31T11:50:57;24.41;69.02
69009;SHT31;56065;52.472;13.380;2023-07-31T11:53:38;24.33;69.60
69009;SHT31;56065;52.472;13.380;2023-07-31T11:56:06;24.22;69.58
69009;SHT31;56065;52.472;13.380;2023-07-31T11:58:34;23.72;69.39
69009;SHT31;56065;52.472;13.380;2023-07-31T12:01:00;23.48;70.68
69009;SHT31;56065;52.472;13.380;2023-07-31T12:03:26;23.33;71.28
69009;SHT31;56065;52.472;13.380;2023-07-31T12:05:53;23.38;71.52
69009;SHT31;56065;52.472;13.380;2023-07-31T12:08:20;23.58;71.37
69009;SHT31;56065;52.472;13.380;2023-07-31T12:10:46;23.94;71.61
69009;SHT31;56065;52.472;13.380;2023-07-31T12:13:22;24.16;69.68
69009;SHT31;56065;52.472;13.380;2023-07-31T12:15:48;24.29;69.73
69009;SHT31;56065;52.472;13.380;2023-07-31T12:18:15;24.29;69.25
69009;SHT31;56065;52.472;13.380;2023-07-31T12:23:16;24.56;69.29
69009;SHT31;56065;52.472;13.380;2023-07-31T12:25:41;24.52;68.51
69009;SHT31;56065;52.472;13.380;2023-07-31T12:28:07;24.61;68.56
69009;SHT31;56065;52.472;13.380;2023-07-31T12:30:37;24.74;67.51
69009;SHT31;56065;52.472;13.380;2023-07-31T12:33:12;24.74;67.45
69009;SHT31;56065;52.472;13.380;2023-07-31T12:35:40;24.66;67.58
69009;SHT31;56065;52.472;13.380;2023-07-31T12:38:05;24.78;68.37
69009;SHT31;56065;52.472;13.380;2023-07-31T12:40:31;24.83;68.39
69009;SHT31;56065;52.472;13.380;2023-07-31T12:42:57;25.10;68.57
69009;SHT31;56065;52.472;13.380;2023-07-31T12:45:22;24.92;67.89
69009;SHT31;56065;52.472;13.380;2023-07-31T12:47:48;25.08;67.80
69009;SHT31;56065;52.472;13.380;2023-07-31T12:50:14;24.95;67.88
69009;SHT31;56065;52.472;13.380;2023-07-31T12:52:39;24.92;67.48
69009;SHT31;56065;52.472;13.380;2023-07-31T12:55:05;24.94;68.49
69009;SHT31;56065;52.472;13.380;2023-07-31T12:57:30;25.07;68.22
69009;SHT31;56065;52.472;13.380;2023-07-31T12:59:56;25.04;68.23
69009;SHT31;56065;52.472;13.380;2023-07-31T13:02:21;24.90;67.37
69009;SHT31;56065;52.472;13.380;2023-07-31T13:04:46;24.64;68.11
69009;SHT31;56065;52.472;13.380;2023-07-31T13:07:12;24.46;68.90
69009;SHT31;56065;52.472;13.380;2023-07-31T13:09:37;24.32;69.18
69009;SHT31;56065;52.472;13.380;2023-07-31T13:12:03;24.13;69.69
69009;SHT31;56065;52.472;13.380;2023-07-31T13:14:28;23.90;69.67
69009;SHT31;56065;52.472;13.380;2023-07-31T13:16:53;23.82;69.97
69009;SHT31;56065;52.472;13.380;2023-07-31T13:19:19;23.61;70.57
69009;SHT31;56065;52.472;13.380;2023-07-31T13:21:44;23.65;70.84
69009;SHT31;56065;52.472;13.380;2023-07-31T13:24:09;23.50;70.97
69009;SHT31;56065;52.472;13.380;2023-07-31T13:26:36;23.47;71.32
69009;SHT31;56065;52.472;13.380;2023-07-31T13:29:02;23.53;71.24
69009;SHT31;56065;52.472;13.380;2023-07-31T13:31:27;23.72;71.36
69009;SHT31;56065;52.472;13.380;2023-07-31T13:33:53;24.20;70.18
69009;SHT31;56065;52.472;13.380;2023-07-31T13:36:18;24.74;69.30
69009;SHT31;56065;52.472;13.380;2023-07-31T13:38:43;25.15;68.90
69009;SHT31;56065;52.472;13.380;2023-07-31T13:41:09;25.32;68.17
69009;SHT31;56065;52.472;13.380;2023-07-31T13:43:34;25.45;67.75
69009;SHT31;56065;52.472;13.380;2023-07-31T13:45:59;25.66;67.00
69009;SHT31;56065;52.472;13.380;2023-07-31T13:48:32;25.65;67.37
69009;SHT31;56065;52.472;13.380;2023-07-31T13:50:57;25.90;66.62
69009;SHT31;56065;52.472;13.380;2023-07-31T13:53:22;25.97;66.63
69009;SHT31;56065;52.472;13.380;2023-07-31T13:55:48;25.97;66.79
69009;SHT31;56065;52.472;13.380;2023-07-31T13:58:14;25.53;66.23
69009;SHT31;56065;52.472;13.380;2023-07-31T14:00:39;25.56;67.32
69009;SHT31;56065;52.472;13.380;2023-07-31T14:03:05;25.67;67.05
69009;SHT31;56065;52.472;13.380;2023-07-31T14:05:30;25.63;67.33
69009;SHT31;56065;52.472;13.380;2023-07-31T14:07:56;25.66;67.50
69009;SHT31;56065;52.472;13.380;2023-07-31T14:10:21;25.66;67.01
69009;SHT31;56065;52.472;13.380;2023-07-31T14:12:47;25.79;67.48
69009;SHT31;56065;52.472;13.380;2023-07-31T14:15:12;25.93;66.73
69009;SHT31;56065;52.472;13.380;2023-07-31T14:17:38;25.90;66.82
69009;SHT31;56065;52.472;13.380;2023-07-31T14:20:03;25.76;66.52
69009;SHT31;56065;52.472;13.380;2023-07-31T14:22:29;25.50;67.50
69009;SHT31;56065;52.472;13.380;2023-07-31T14:24:55;25.25;67.50
69009;SHT31;56065;52.472;13.380;2023-07-31T14:27:20;24.90;67.91
69009;SHT31;56065;52.472;13.380;2023-07-31T14:29:46;24.81;68.59
69009;SHT31;56065;52.472;13.380;2023-07-31T14:32:11;24.81;68.85
69009;SHT31;56065;52.472;13.380;2023-07-31T14:34:36;24.78;68.54
69009;SHT31;56065;52.472;13.380;2023-07-31T14:37:02;24.74;68.42
69009;SHT31;56065;52.472;13.380;2023-07-31T14:39:27;24.71;68.02
69009;SHT31;56065;52.472;13.380;2023-07-31T14:41:52;24.80;68.09
69009;SHT31;56065;52.472;13.380;2023-07-31T14:44:18;24.49;67.73
69009;SHT31;56065;52.472;13.380;2023-07-31T14:46:43;24.39;68.00
69009;SHT31;56065;52.472;13.380;2023-07-31T14:49:08;24.35;67.94
69009;SHT31;56065;52.472;13.380;2023-07-31T14:51:34;24.43;67.94
69009;SHT31;56065;52.472;13.380;2023-07-31T14:53:59;24.44;68.23
69009;SHT31;56065;52.472;13.380;2023-07-31T14:56:24;24.22;68.73
69009;SHT31;56065;52.472;13.380;2023-07-31T14:58:51;24.19;68.59
69009;SHT31;56065;52.472;13.380;2023-07-31T15:01:17;24.04;68.94
69009;SHT31;56065;52.472;13.380;2023-07-31T15:03:42;24.04;69.27
69009;SHT31;56065;52.472;13.380;2023-07-31T15:06:07;23.96;69.82
69009;SHT31;56065;52.472;13.380;2023-07-31T15:08:33;23.89;69.78
69009;SHT31;56065;52.472;13.380;2023-07-31T15:10:58;23.89;69.68
69009;SHT31;56065;52.472;13.380;2023-07-31T15:13:24;23.81;69.91
69009;SHT31;56065;52.472;13.380;2023-07-31T15:15:50;23.78;70.32
69009;SHT31;56065;52.472;13.380;2023-07-31T15:18:15;23.79;70.51
69009;SHT31;56065;52.472;13.380;2023-07-31T15:20:40;23.74;70.34